sensor_id;sensor_type;location;lat;lon;timestamp;temperature;humidity
37356;DHT22;48747;50.250;18.848;2023-06-22T00:00:55;21.00;99.90
37356;DHT22;48747;50.250;18.848;2023-06-22T00:03:07;21.00;99.90
37356;DHT22;48747;50.250;18.848;2023-06-22T00:05:08;21.00;99.90
37356;DHT22;48747;50.250;18.848;2023-06-22T00:07:13;21.00;99.90
37356;DHT22;48747;50.250;18.848;2023-06-22T00:09:19;21.00;99.90
37356;DHT22;48747;50.250;18.848;2023-06-22T00:11:31;21.00;99.90
37356;DHT22;48747;50.250;18.848;2023-06-22T00:13:27;21.00;99.90
37356;DHT22;48747;50.250;18.848;2023-06-22T00:15:32;21.00;99.90
37356;DHT22;48747;50.250;18.848;2023-06-22T00:17:38;20.90;99.90
37356;DHT22;48747;50.250;18.848;2023-06-22T00:19:43;20.90;99.90
37356;DHT22;48747;50.250;18.848;2023-06-22T00:21:51;21.00;99.90
37356;DHT22;48747;50.250;18.848;2023-06-22T00:24:06;21.00;99.90
37356;DHT22;48747;50.250;18.848;2023-06-22T00:26:10;21.00;99.90
37356;DHT22;48747;50.250;18.848;2023-06-22T00:28:13;21.00;99.90
37356;DHT22;48747;50.250;18.848;2023-06-22T00:30:19;21.00;99.90
37356;DHT22;48747;50.250;18.848;2023-06-22T00:32:22;20.90;99.90
37356;DHT22;48747;50.250;18.848;2023-06-22T00:34:28;20.80;99.90
37356;DHT22;48747;50.250;18.848;2023-06-22T00:36:36;20.80;99.90
37356;DHT22;48747;50.250;18.848;2023-06-22T00:38:39;20.80;99.90
37356;DHT22;48747;50.250;18.848;2023-06-22T00:40:44;20.70;99.90
37356;DHT22;48747;50.250;18.848;2023-06-22T00:42:50;20.70;99.90
37356;DHT22;48747;50.250;18.848;2023-06-22T00:44:54;20.70;99.90
37356;DHT22;48747;50.250;18.848;2023-06-22T00:47:03;20.70;99.90
37356;DHT22;48747;50.250;18.848;2023-06-22T00:49:22;20.70;99.90
37356;DHT22;48747;50.250;18.848;2023-06-22T00:51:30;20.70;99.90
37356;DHT22;48747;50.250;18.848;2023-06-22T00:53:33;20.60;99.90
37356;DHT22;48747;50.250;18.848;2023-06-22T00:55:45;20.70;99.90
37356;DHT22;48747;50.250;18.848;2023-06-22T00:57:53;20.60;99.90
37356;DHT22;48747;50.250;18.848;2023-06-22T00:59:59;20.70;99.90
37356;DHT22;48747;50.250;18.848;2023-06-22T01:02:04;20.70;99.90
37356;DHT22;48747;50.250;18.848;2023-06-22T01:04:11;20.70;99.90
37356;DHT22;48747;50.250;18.848;2023-06-22T01:06:15;20.60;99.90
37356;DHT22;48747;50.250;18.848;2023-06-22T01:13:25;20.60;99.90
37356;DHT22;48747;50.250;18.848;2023-06-22T01:15:51;20.60;99.90
37356;DHT22;48747;50.250;18.848;2023-06-22T01:17:56;20.50;99.90
37356;DHT22;48747;50.250;18.848;2023-06-22T01:20:03;20.50;99.90
37356;DHT22;48747;50.250;18.848;2023-06-22T01:22:10;20.50;99.90
37356;DHT22;48747;50.250;18.848;2023-06-22T01:24:26;20.60;99.90
37356;DHT22;48747;50.250;18.848;2023-06-22T01:29:16;20.50;99.90
37356;DHT22;48747;50.250;18.848;2023-06-22T01:31:23;20.40;99.90
37356;DHT22;48747;50.250;18.848;2023-06-22T01:33:39;20.40;99.90
37356;DHT22;48747;50.250;18.848;2023-06-22T01:35:41;20.40;99.90
37356;DHT22;48747;50.250;18.848;2023-06-22T01:37:50;20.40;99.90
37356;DHT22;48747;50.250;18.848;2023-06-22T01:39:55;20.40;99.90
37356;DHT22;48747;50.250;18.848;2023-06-22T01:42:00;20.30;99.90
37356;DHT22;48747;50.250;18.848;2023-06-22T01:44:16;20.30;99.90
37356;DHT22;48747;50.250;18.848;2023-06-22T01:46:14;20.20;99.90
37356;DHT22;48747;50.250;18.848;2023-06-22T01:48:21;20.20;99.90
37356;DHT22;48747;50.250;18.848;2023-06-22T01:50:26;20.30;99.90
37356;DHT22;48747;50.250;18.848;2023-06-22T01:52:31;20.30;99.90
37356;DHT22;48747;50.250;18.848;2023-06-22T01:54:36;20.30;99.90
37356;DHT22;48747;50.250;18.848;2023-06-22T01:56:43;20.40;99.90
37356;DHT22;48747;50.250;18.848;2023-06-22T01:59:07;20.40;99.90
37356;DHT22;48747;50.250;18.848;2023-06-22T02:01:09;20.40;99.90
37356;DHT22;48747;50.250;18.848;2023-06-22T02:03:14;20.40;99.90
37356;DHT22;48747;50.250;18.848;2023-06-22T02:05:24;20.40;99.90
37356;DHT22;48747;50.250;18.848;2023-06-22T02:07:37;20.30;99.90
37356;DHT22;48747;50.250;18.848;2023-06-22T02:09:40;20.30;99.90
37356;DHT22;48747;50.250;18.848;2023-06-22T02:11:45;20.20;99.90
37356;DHT22;48747;50.250;18.848;2023-06-22T02:13:50;20.30;99.90
37356;DHT22;48747;50.250;18.848;2023-06-22T02:15:58;20.20;99.90
37356;DHT22;48747;50.250;18.848;2023-06-22T02:18:03;20.20;99.90
37356;DHT22;48747;50.250;18.848;2023-06-22T02:20:13;20.20;99.90
37356;DHT22;48747;50.250;18.848;2023-06-22T02:22:16;20.10;99.90
37356;DHT22;48747;50.250;18.848;2023-06-22T02:24:22;20.10;99.90
37356;DHT22;48747;50.250;18.848;2023-06-22T02:26:27;20.10;99.90
37356;DHT22;48747;50.250;18.848;2023-06-22T02:28:32;20.10;99.90
37356;DHT22;48747;50.250;18.848;2023-06-22T02:30:36;20.10;99.90
37356;DHT22;48747;50.250;18.848;2023-06-22T02:32:44;20.10;99.90
37356;DHT22;48747;50.250;18.848;2023-06-22T02:34:53;20.10;99.90
37356;DHT22;48747;50.250;18.848;2023-06-22T02:36:58;20.10;99.90
37356;DHT22;48747;50.250;18.848;2023-06-22T02:39:02;20.10;99.90
37356;DHT22;48747;50.250;18.848;2023-06-22T02:41:07;20.10;99.90
37356;DHT22;48747;50.250;18.848;2023-06-22T02:43:13;20.10;99.90
37356;DHT22;48747;50.250;18.848;2023-06-22T02:45:17;20.00;99.90
37356;DHT22;48747;50.250;18.848;2023-06-22T02:47:26;20.10;99.90
37356;DHT22;48747;50.250;18.848;2023-06-22T02:49:34;20.00;99.90
37356;DHT22;48747;50.250;18.848;2023-06-22T02:51:46;20.00;99.90
37356;DHT22;48747;50.250;18.848;2023-06-22T02:53:45;20.00;99.90
37356;DHT22;48747;50.250;18.848;2023-06-22T02:57:55;20.10;99.90
37356;DHT22;48747;50.250;18.848;2023-06-22T03:00:02;20.10;99.90
37356;DHT22;48747;50.250;18.848;2023-06-22T03:02:14;20.10;99.90
37356;DHT22;48747;50.250;18.848;2023-06-22T03:04:23;20.10;99.90
37356;DHT22;48747;50.250;18.848;2023-06-22T03:06:28;20.10;99.90
37356;DHT22;48747;50.250;18.848;2023-06-22T03:08:34;20.10;99.90
37356;DHT22;48747;50.250;18.848;2023-06-22T03:10:47;20.10;99.90
37356;DHT22;48747;50.250;18.848;2023-06-22T03:12:52;20.10;99.90
37356;DHT22;48747;50.250;18.848;2023-06-22T03:14:58;20.20;99.90
37356;DHT22;48747;50.250;18.848;2023-06-22T03:17:04;20.20;99.90
37356;DHT22;48747;50.250;18.848;2023-06-22T03:19:09;20.20;99.90
37356;DHT22;48747;50.250;18.848;2023-06-22T03:21:18;20.20;99.90
37356;DHT22;48747;50.250;18.848;2023-06-22T03:23:22;20.20;99.90
37356;DHT22;48747;50.250;18.848;2023-06-22T03:25:27;20.30;99.90
37356;DHT22;48747;50.250;18.848;2023-06-22T03:27:30;20.30;99.90
37356;DHT22;48747;50.250;18.848;2023-06-22T03:29:35;20.30;99.90
37356;DHT22;48747;50.250;18.848;2023-06-22T03:31:39;20.40;99.90
37356;DHT22;48747;50.250;18.848;2023-06-22T03:33:45;20.40;99.90
37356;DHT22;48747;50.250;18.848;2023-06-22T03:35:52;20.40;99.90
37356;DHT22;48747;50.250;18.848;2023-06-22T03:38:03;20.40;99.90
37356;DHT22;48747;50.250;18.848;2023-06-22T03:40:12;20.50;99.90
37356;DHT22;48747;50.250;18.848;2023-06-22T03:42:13;20.50;99.90
37356;DHT22;48747;50.250;18.848;2023-06-22T03:44:18;20.60;99.90
37356;DHT22;48747;50.250;18.848;2023-06-22T03:46:24;20.60;99.90
37356;DHT22;48747;50.250;18.848;2023-06-22T03:48:30;20.60;99.90
37356;DHT22;48747;50.250;18.848;2023-06-22T03:50:36;20.60;99.90
37356;DHT22;48747;50.250;18.848;2023-06-22T03:52:41;20.50;99.90
37356;DHT22;48747;50.250;18.848;2023-06-22T03:54:47;20.60;99.90
37356;DHT22;48747;50.250;18.848;2023-06-22T03:56:52;20.70;99.90
37356;DHT22;48747;50.250;18.848;2023-06-22T03:59:01;20.80;99.90
37356;DHT22;48747;50.250;18.848;2023-06-22T04:01:08;20.90;99.90
37356;DHT22;48747;50.250;18.848;2023-06-22T04:03:19;21.00;99.90
37356;DHT22;48747;50.250;18.848;2023-06-22T04:05:18;21.10;99.90
37356;DHT22;48747;50.250;18.848;2023-06-22T04:07:25;21.20;99.90
37356;DHT22;48747;50.250;18.848;2023-06-22T04:09:30;21.20;99.90
37356;DHT22;48747;50.250;18.848;2023-06-22T04:11:36;21.20;99.90
37356;DHT22;48747;50.250;18.848;2023-06-22T04:13:42;21.40;99.90
37356;DHT22;48747;50.250;18.848;2023-06-22T04:15:49;21.40;99.90
37356;DHT22;48747;50.250;18.848;2023-06-22T04:17:56;21.40;99.90
37356;DHT22;48747;50.250;18.848;2023-06-22T04:20:11;21.40;99.90
37356;DHT22;48747;50.250;18.848;2023-06-22T04:22:06;21.40;99.90
37356;DHT22;48747;50.250;18.848;2023-06-22T04:24:22;21.40;99.90
37356;DHT22;48747;50.250;18.848;2023-06-22T04:26:24;21.40;99.90
37356;DHT22;48747;50.250;18.848;2023-06-22T04:28:28;21.50;99.90
37356;DHT22;48747;50.250;18.848;2023-06-22T04:30:36;21.50;99.90
37356;DHT22;48747;50.250;18.848;2023-06-22T04:32:44;21.40;99.90
37356;DHT22;48747;50.250;18.848;2023-06-22T04:34:47;21.50;99.90
37356;DHT22;48747;50.250;18.848;2023-06-22T04:37:00;21.70;99.90
37356;DHT22;48747;50.250;18.848;2023-06-22T04:39:10;21.90;99.90
37356;DHT22;48747;50.250;18.848;2023-06-22T04:41:10;22.00;99.90
37356;DHT22;48747;50.250;18.848;2023-06-22T04:43:37;22.10;99.90
37356;DHT22;48747;50.250;18.848;2023-06-22T04:45:25;22.10;99.90
37356;DHT22;48747;50.250;18.848;2023-06-22T04:47:30;22.10;99.90
37356;DHT22;48747;50.250;18.848;2023-06-22T04:49:36;22.20;99.90
37356;DHT22;48747;50.250;18.848;2023-06-22T04:51:43;22.20;99.90
37356;DHT22;48747;50.250;18.848;2023-06-22T04:53:51;22.40;99.90
37356;DHT22;48747;50.250;18.848;2023-06-22T04:55:57;22.50;99.90
37356;DHT22;48747;50.250;18.848;2023-06-22T04:58:04;22.50;99.90
37356;DHT22;48747;50.250;18.848;2023-06-22T05:00:10;22.60;99.90
37356;DHT22;48747;50.250;18.848;2023-06-22T05:02:20;22.60;99.90
37356;DHT22;48747;50.250;18.848;2023-06-22T05:06:27;22.60;99.90
37356;DHT22;48747;50.250;18.848;2023-06-22T05:08:33;22.60;99.90
37356;DHT22;48747;50.250;18.848;2023-06-22T05:12:45;22.90;99.90
37356;DHT22;48747;50.250;18.848;2023-06-22T05:14:50;22.90;99.90
37356;DHT22;48747;50.250;18.848;2023-06-22T05:17:02;23.10;99.90
37356;DHT22;48747;50.250;18.848;2023-06-22T05:19:04;23.10;99.90
37356;DHT22;48747;50.250;18.848;2023-06-22T05:21:17;23.20;99.90
37356;DHT22;48747;50.250;18.848;2023-06-22T05:23:18;23.30;99.90
37356;DHT22;48747;50.250;18.848;2023-06-22T05:25:21;23.40;99.90
37356;DHT22;48747;50.250;18.848;2023-06-22T05:27:32;23.60;99.90
37356;DHT22;48747;50.250;18.848;2023-06-22T05:29:38;23.60;99.90
37356;DHT22;48747;50.250;18.848;2023-06-22T05:31:46;23.70;99.90
37356;DHT22;48747;50.250;18.848;2023-06-22T05:33:53;23.80;99.90
37356;DHT22;48747;50.250;18.848;2023-06-22T05:38:10;23.80;99.90
37356;DHT22;48747;50.250;18.848;2023-06-22T05:40:15;23.80;99.90
37356;DHT22;48747;50.250;18.848;2023-06-22T05:42:22;23.80;99.90
37356;DHT22;48747;50.250;18.848;2023-06-22T05:44:32;23.80;99.90
37356;DHT22;48747;50.250;18.848;2023-06-22T05:46:34;23.80;99.90
37356;DHT22;48747;50.250;18.848;2023-06-22T05:48:39;23.80;99.90
37356;DHT22;48747;50.250;18.848;2023-06-22T05:50:49;23.90;99.90
37356;DHT22;48747;50.250;18.848;2023-06-22T05:52:50;23.90;99.90
37356;DHT22;48747;50.250;18.848;2023-06-22T05:55:12;23.90;99.90
37356;DHT22;48747;50.250;18.848;2023-06-22T05:57:08;23.90;99.90
37356;DHT22;48747;50.250;18.848;2023-06-22T05:59:12;23.90;99.90
37356;DHT22;48747;50.250;18.848;2023-06-22T06:01:23;23.90;99.90
37356;DHT22;48747;50.250;18.848;2023-06-22T06:03:32;23.80;99.90
37356;DHT22;48747;50.250;18.848;2023-06-22T06:05:39;23.80;99.90
37356;DHT22;48747;50.250;18.848;2023-06-22T06:07:52;23.70;99.90
37356;DHT22;48747;50.250;18.848;2023-06-22T06:10:06;23.70;99.90
37356;DHT22;48747;50.250;18.848;2023-06-22T06:18:08;23.90;99.90
37356;DHT22;48747;50.250;18.848;2023-06-22T06:22:35;24.30;99.90
37356;DHT22;48747;50.250;18.848;2023-06-22T06:26:58;24.60;99.90
37356;DHT22;48747;50.250;18.848;2023-06-22T06:29:10;24.50;99.90
37356;DHT22;48747;50.250;18.848;2023-06-22T06:31:13;24.50;99.90
37356;DHT22;48747;50.250;18.848;2023-06-22T06:33:21;24.70;99.90
37356;DHT22;48747;50.250;18.848;2023-06-22T06:35:26;24.80;99.90
37356;DHT22;48747;50.250;18.848;2023-06-22T06:51:05;25.30;99.90
37356;DHT22;48747;50.250;18.848;2023-06-22T06:55:54;25.30;99.90
37356;DHT22;48747;50.250;18.848;2023-06-22T06:58:05;25.30;99.90
37356;DHT22;48747;50.250;18.848;2023-06-22T07:00:20;25.40;99.90
37356;DHT22;48747;50.250;18.848;2023-06-22T07:02:28;25.20;99.90
37356;DHT22;48747;50.250;18.848;2023-06-22T08:14:38;26.80;99.90
37356;DHT22;48747;50.250;18.848;2023-06-22T08:16:42;26.90;99.90
37356;DHT22;48747;50.250;18.848;2023-06-22T08:18:46;27.00;99.90
37356;DHT22;48747;50.250;18.848;2023-06-22T08:20:55;26.90;99.90
37356;DHT22;48747;50.250;18.848;2023-06-22T08:22:55;26.90;99.10
37356;DHT22;48747;50.250;18.848;2023-06-22T08:25:00;26.90;97.70
37356;DHT22;48747;50.250;18.848;2023-06-22T08:27:03;26.90;98.10
37356;DHT22;48747;50.250;18.848;2023-06-22T08:29:10;26.80;98.20
37356;DHT22;48747;50.250;18.848;2023-06-22T08:31:15;26.90;97.50
37356;DHT22;48747;50.250;18.848;2023-06-22T08:33:18;26.90;96.70
37356;DHT22;48747;50.250;18.848;2023-06-22T08:43:00;27.20;94.20
37356;DHT22;48747;50.250;18.848;2023-06-22T08:45:04;27.50;93.70
37356;DHT22;48747;50.250;18.848;2023-06-22T08:47:07;27.70;93.50
37356;DHT22;48747;50.250;18.848;2023-06-22T08:51:57;27.90;90.60
37356;DHT22;48747;50.250;18.848;2023-06-22T08:54:20;27.80;90.30
37356;DHT22;48747;50.250;18.848;2023-06-22T08:56:26;27.70;90.90
37356;DHT22;48747;50.250;18.848;2023-06-22T08:58:29;27.80;90.10
37356;DHT22;48747;50.250;18.848;2023-06-22T09:00:44;27.90;90.40
37356;DHT22;48747;50.250;18.848;2023-06-22T09:02:49;27.80;87.10
37356;DHT22;48747;50.250;18.848;2023-06-22T09:05:13;27.90;87.90
37356;DHT22;48747;50.250;18.848;2023-06-22T09:07:19;27.90;87.30
37356;DHT22;48747;50.250;18.848;2023-06-22T09:09:56;28.00;88.60
37356;DHT22;48747;50.250;18.848;2023-06-22T09:12:04;28.40;89.80
37356;DHT22;48747;50.250;18.848;2023-06-22T09:16:55;28.90;82.90
37356;DHT22;48747;50.250;18.848;2023-06-22T09:21:04;28.90;80.10
37356;DHT22;48747;50.250;18.848;2023-06-22T09:23:13;28.90;80.50
37356;DHT22;48747;50.250;18.848;2023-06-22T09:25:15;28.80;77.90
37356;DHT22;48747;50.250;18.848;2023-06-22T09:27:47;28.80;80.90
37356;DHT22;48747;50.250;18.848;2023-06-22T09:30:19;28.90;76.90
37356;DHT22;48747;50.250;18.848;2023-06-22T09:34:50;28.90;78.40
37356;DHT22;48747;50.250;18.848;2023-06-22T09:42:38;28.70;75.00
37356;DHT22;48747;50.250;18.848;2023-06-22T09:56:20;28.80;72.70
37356;DHT22;48747;50.250;18.848;2023-06-22T10:29:25;29.80;68.10
37356;DHT22;48747;50.250;18.848;2023-06-22T10:31:33;30.00;65.10
37356;DHT22;48747;50.250;18.848;2023-06-22T10:33:36;29.90;64.60
37356;DHT22;48747;50.250;18.848;2023-06-22T10:35:46;30.00;67.40
37356;DHT22;48747;50.250;18.848;2023-06-22T10:37:51;30.10;65.70
37356;DHT22;48747;50.250;18.848;2023-06-22T10:40:24;30.40;66.60
37356;DHT22;48747;50.250;18.848;2023-06-22T11:06:12;28.80;68.00
37356;DHT22;48747;50.250;18.848;2023-06-22T11:08:13;28.60;68.90
37356;DHT22;48747;50.250;18.848;2023-06-22T11:12:32;29.20;66.90
37356;DHT22;48747;50.250;18.848;2023-06-22T11:14:38;29.60;68.20
37356;DHT22;48747;50.250;18.848;2023-06-22T11:16:42;30.00;66.90
37356;DHT22;48747;50.250;18.848;2023-06-22T11:18:45;30.30;65.70
37356;DHT22;48747;50.250;18.848;2023-06-22T11:20:48;30.50;63.40
37356;DHT22;48747;50.250;18.848;2023-06-22T11:22:51;30.50;63.10
37356;DHT22;48747;50.250;18.848;2023-06-22T11:24:54;30.50;63.10
37356;DHT22;48747;50.250;18.848;2023-06-22T11:26:58;30.50;63.40
37356;DHT22;48747;50.250;18.848;2023-06-22T11:34:35;29.60;63.60
37356;DHT22;48747;50.250;18.848;2023-06-22T11:36:40;29.90;64.10
37356;DHT22;48747;50.250;18.848;2023-06-22T11:38:48;30.20;63.40
37356;DHT22;48747;50.250;18.848;2023-06-22T11:40:49;30.30;61.30
37356;DHT22;48747;50.250;18.848;2023-06-22T11:42:54;30.50;62.20
37356;DHT22;48747;50.250;18.848;2023-06-22T11:45:00;30.60;61.30
37356;DHT22;48747;50.250;18.848;2023-06-22T11:47:05;30.80;62.40
37356;DHT22;48747;50.250;18.848;2023-06-22T11:49:08;30.90;60.00
37356;DHT22;48747;50.250;18.848;2023-06-22T11:51:11;31.00;62.00
37356;DHT22;48747;50.250;18.848;2023-06-22T11:53:15;31.20;60.60
37356;DHT22;48747;50.250;18.848;2023-06-22T11:55:26;31.30;60.50
37356;DHT22;48747;50.250;18.848;2023-06-22T11:57:25;31.30;60.20
37356;DHT22;48747;50.250;18.848;2023-06-22T11:59:34;31.30;59.70
37356;DHT22;48747;50.250;18.848;2023-06-22T12:01:34;31.40;59.10
37356;DHT22;48747;50.250;18.848;2023-06-22T12:03:46;31.40;60.10
37356;DHT22;48747;50.250;18.848;2023-06-22T12:05:49;31.50;58.80
37356;DHT22;48747;50.250;18.848;2023-06-22T12:07:55;31.60;58.10
37356;DHT22;48747;50.250;18.848;2023-06-22T12:10:03;31.50;58.50
37356;DHT22;48747;50.250;18.848;2023-06-22T12:12:06;31.40;58.40
37356;DHT22;48747;50.250;18.848;2023-06-22T12:14:11;31.60;59.80
37356;DHT22;48747;50.250;18.848;2023-06-22T12:16:17;31.60;59.40
37356;DHT22;48747;50.250;18.848;2023-06-22T12:18:28;31.80;57.60
37356;DHT22;48747;50.250;18.848;2023-06-22T12:20:30;31.80;57.40
37356;DHT22;48747;50.250;18.848;2023-06-22T12:22:41;31.70;57.50
37356;DHT22;48747;50.250;18.848;2023-06-22T12:24:44;31.80;57.40
37356;DHT22;48747;50.250;18.848;2023-06-22T12:27:09;31.80;57.30
37356;DHT22;48747;50.250;18.848;2023-06-22T12:28:54;31.80;57.60
37356;DHT22;48747;50.250;18.848;2023-06-22T12:30:57;31.90;59.40
37356;DHT22;48747;50.250;18.848;2023-06-22T12:33:00;31.90;57.90
37356;DHT22;48747;50.250;18.848;2023-06-22T12:35:03;31.60;56.70
37356;DHT22;48747;50.250;18.848;2023-06-22T12:37:06;31.50;56.10
37356;DHT22;48747;50.250;18.848;2023-06-22T12:39:09;31.40;56.70
37356;DHT22;48747;50.250;18.848;2023-06-22T12:41:12;31.60;58.20
37356;DHT22;48747;50.250;18.848;2023-06-22T12:43:15;31.60;56.60
37356;DHT22;48747;50.250;18.848;2023-06-22T12:45:18;31.60;56.40
37356;DHT22;48747;50.250;18.848;2023-06-22T12:47:23;31.60;55.00
37356;DHT22;48747;50.250;18.848;2023-06-22T12:49:26;31.90;57.00
37356;DHT22;48747;50.250;18.848;2023-06-22T12:51:29;31.80;56.20
37356;DHT22;48747;50.250;18.848;2023-06-22T12:53:32;31.70;56.30
37356;DHT22;48747;50.250;18.848;2023-06-22T12:55:35;31.50;56.40
37356;DHT22;48747;50.250;18.848;2023-06-22T12:57:38;31.30;56.80
37356;DHT22;48747;50.250;18.848;2023-06-22T12:59:41;31.40;57.10
37356;DHT22;48747;50.250;18.848;2023-06-22T13:01:44;31.60;56.80
37356;DHT22;48747;50.250;18.848;2023-06-22T13:03:47;31.70;55.50
37356;DHT22;48747;50.250;18.848;2023-06-22T13:05:50;31.80;56.00
37356;DHT22;48747;50.250;18.848;2023-06-22T13:07:53;32.00;56.80
37356;DHT22;48747;50.250;18.848;2023-06-22T13:09:56;32.00;56.40
37356;DHT22;48747;50.250;18.848;2023-06-22T13:12:00;32.10;56.80
37356;DHT22;48747;50.250;18.848;2023-06-22T13:14:03;32.30;55.80
37356;DHT22;48747;50.250;18.848;2023-06-22T13:16:06;32.40;55.30
37356;DHT22;48747;50.250;18.848;2023-06-22T13:18:09;32.30;54.60
37356;DHT22;48747;50.250;18.848;2023-06-22T13:20:12;32.40;54.90
37356;DHT22;48747;50.250;18.848;2023-06-22T13:22:35;32.60;54.80
37356;DHT22;48747;50.250;18.848;2023-06-22T13:24:45;32.70;54.90
37356;DHT22;48747;50.250;18.848;2023-06-22T13:26:48;32.70;53.90
37356;DHT22;48747;50.250;18.848;2023-06-22T13:28:52;32.70;55.00
37356;DHT22;48747;50.250;18.848;2023-06-22T13:30:55;32.60;53.10
37356;DHT22;48747;50.250;18.848;2023-06-22T13:32:58;32.70;51.80
37356;DHT22;48747;50.250;18.848;2023-06-22T13:35:01;32.80;52.20
37356;DHT22;48747;50.250;18.848;2023-06-22T13:37:04;32.80;53.70
37356;DHT22;48747;50.250;18.848;2023-06-22T13:39:08;32.80;53.70
37356;DHT22;48747;50.250;18.848;2023-06-22T13:41:11;32.70;54.50
37356;DHT22;48747;50.250;18.848;2023-06-22T13:43:14;32.70;54.40
37356;DHT22;48747;50.250;18.848;2023-06-22T13:45:17;32.90;53.60
37356;DHT22;48747;50.250;18.848;2023-06-22T13:47:21;32.80;52.50
37356;DHT22;48747;50.250;18.848;2023-06-22T13:49:25;32.90;53.70
37356;DHT22;48747;50.250;18.848;2023-06-22T13:51:28;32.90;52.80
37356;DHT22;48747;50.250;18.848;2023-06-22T13:53:31;32.90;52.70
37356;DHT22;48747;50.250;18.848;2023-06-22T13:55:34;32.90;52.10
37356;DHT22;48747;50.250;18.848;2023-06-22T13:57:37;32.90;53.40
37356;DHT22;48747;50.250;18.848;2023-06-22T13:59:40;32.70;52.00
37356;DHT22;48747;50.250;18.848;2023-06-22T14:01:43;32.50;51.60
37356;DHT22;48747;50.250;18.848;2023-06-22T14:03:48;32.30;51.50
37356;DHT22;48747;50.250;18.848;2023-06-22T14:05:51;32.30;52.50
37356;DHT22;48747;50.250;18.848;2023-06-22T14:07:56;32.40;54.00
37356;DHT22;48747;50.250;18.848;2023-06-22T14:10:00;32.50;51.40
37356;DHT22;48747;50.250;18.848;2023-06-22T14:12:04;32.50;51.20
37356;DHT22;48747;50.250;18.848;2023-06-22T14:14:07;32.30;50.90
37356;DHT22;48747;50.250;18.848;2023-06-22T14:16:10;32.30;51.60
37356;DHT22;48747;50.250;18.848;2023-06-22T14:18:14;32.50;52.60
37356;DHT22;48747;50.250;18.848;2023-06-22T14:20:17;32.60;51.20
37356;DHT22;48747;50.250;18.848;2023-06-22T14:22:21;32.70;50.50
37356;DHT22;48747;50.250;18.848;2023-06-22T14:24:24;32.60;50.00
37356;DHT22;48747;50.250;18.848;2023-06-22T14:26:27;32.60;50.20
37356;DHT22;48747;50.250;18.848;2023-06-22T14:28:30;32.50;50.30
37356;DHT22;48747;50.250;18.848;2023-06-22T14:30:33;32.70;51.50
37356;DHT22;48747;50.250;18.848;2023-06-22T14:32:37;32.70;50.70
37356;DHT22;48747;50.250;18.848;2023-06-22T14:34:40;32.70;51.00
37356;DHT22;48747;50.250;18.848;2023-06-22T14:36:44;32.60;51.60
37356;DHT22;48747;50.250;18.848;2023-06-22T14:38:47;32.70;52.10
37356;DHT22;48747;50.250;18.848;2023-06-22T14:40:50;32.60;52.70
37356;DHT22;48747;50.250;18.848;2023-06-22T14:42:53;32.60;51.80
37356;DHT22;48747;50.250;18.848;2023-06-22T14:44:58;32.70;51.30
37356;DHT22;48747;50.250;18.848;2023-06-22T14:47:01;32.70;51.00
37356;DHT22;48747;50.250;18.848;2023-06-22T14:49:04;32.50;50.40
37356;DHT22;48747;50.250;18.848;2023-06-22T14:51:09;32.50;50.60
37356;DHT22;48747;50.250;18.848;2023-06-22T14:53:14;32.70;51.30
37356;DHT22;48747;50.250;18.848;2023-06-22T14:55:17;32.70;50.70
37356;DHT22;48747;50.250;18.848;2023-06-22T14:57:20;32.90;52.20
37356;DHT22;48747;50.250;18.848;2023-06-22T14:59:24;33.00;50.80
37356;DHT22;48747;50.250;18.848;2023-06-22T15:01:28;33.10;51.70
37356;DHT22;48747;50.250;18.848;2023-06-22T15:03:31;32.90;50.40
37356;DHT22;48747;50.250;18.848;2023-06-22T15:05:34;32.90;51.60
37356;DHT22;48747;50.250;18.848;2023-06-22T15:07:37;32.70;50.60
37356;DHT22;48747;50.250;18.848;2023-06-22T15:09:40;32.60;51.20
37356;DHT22;48747;50.250;18.848;2023-06-22T15:11:45;32.70;50.90
37356;DHT22;48747;50.250;18.848;2023-06-22T15:13:48;32.60;52.10
37356;DHT22;48747;50.250;18.848;2023-06-22T15:15:51;32.40;51.40
37356;DHT22;48747;50.250;18.848;2023-06-22T15:17:54;32.40;52.20
37356;DHT22;48747;50.250;18.848;2023-06-22T15:19:58;32.20;50.90
37356;DHT22;48747;50.250;18.848;2023-06-22T15:22:01;32.40;51.50
37356;DHT22;48747;50.250;18.848;2023-06-22T15:24:05;32.20;51.50
37356;DHT22;48747;50.250;18.848;2023-06-22T15:26:08;32.00;50.90
37356;DHT22;48747;50.250;18.848;2023-06-22T15:28:11;32.00;52.70
37356;DHT22;48747;50.250;18.848;2023-06-22T15:30:14;32.00;51.90
37356;DHT22;48747;50.250;18.848;2023-06-22T15:32:17;32.00;51.40
37356;DHT22;48747;50.250;18.848;2023-06-22T15:34:20;32.10;51.90
37356;DHT22;48747;50.250;18.848;2023-06-22T15:36:23;32.10;51.20
37356;DHT22;48747;50.250;18.848;2023-06-22T15:38:26;32.20;51.20
37356;DHT22;48747;50.250;18.848;2023-06-22T15:40:30;32.20;51.90
37356;DHT22;48747;50.250;18.848;2023-06-22T15:42:33;32.30;51.50
37356;DHT22;48747;50.250;18.848;2023-06-22T15:44:36;32.30;50.90
37356;DHT22;48747;50.250;18.848;2023-06-22T15:46:39;32.20;50.50
37356;DHT22;48747;50.250;18.848;2023-06-22T15:48:42;32.20;51.20
37356;DHT22;48747;50.250;18.848;2023-06-22T15:50:45;32.00;50.60
37356;DHT22;48747;50.250;18.848;2023-06-22T15:52:48;31.90;51.50
37356;DHT22;48747;50.250;18.848;2023-06-22T15:54:52;31.70;52.10
37356;DHT22;48747;50.250;18.848;2023-06-22T15:56:56;31.70;52.00
37356;DHT22;48747;50.250;18.848;2023-06-22T15:59:00;31.60;51.60
37356;DHT22;48747;50.250;18.848;2023-06-22T16:01:03;31.50;52.50
37356;DHT22;48747;50.250;18.848;2023-06-22T16:03:07;31.40;52.40
37356;DHT22;48747;50.250;18.848;2023-06-22T16:05:10;31.50;52.30
37356;DHT22;48747;50.250;18.848;2023-06-22T16:07:13;31.60;53.30
37356;DHT22;48747;50.250;18.848;2023-06-22T16:09:16;31.60;52.50
37356;DHT22;48747;50.250;18.848;2023-06-22T16:11:19;31.50;52.70
37356;DHT22;48747;50.250;18.848;2023-06-22T16:13:22;31.50;53.10
37356;DHT22;48747;50.250;18.848;2023-06-22T16:15:25;31.50;52.80
37356;DHT22;48747;50.250;18.848;2023-06-22T16:17:28;31.40;53.40
37356;DHT22;48747;50.250;18.848;2023-06-22T16:19:31;31.30;52.70
37356;DHT22;48747;50.250;18.848;2023-06-22T16:21:34;31.10;53.80
37356;DHT22;48747;50.250;18.848;2023-06-22T16:23:37;31.00;54.00
37356;DHT22;48747;50.250;18.848;2023-06-22T16:25:42;30.90;53.10
37356;DHT22;48747;50.250;18.848;2023-06-22T16:27:45;30.80;53.30
37356;DHT22;48747;50.250;18.848;2023-06-22T16:29:48;30.70;53.00
37356;DHT22;48747;50.250;18.848;2023-06-22T16:31:51;30.70;53.20